Ushuaia, Argentina
Current Conditions -  °F | °C
As of 8:00 AM on Sunday 23 Nov 2014 (Local Time) from SAWH Reporting Station
Rain Showers Rain Showers  
Wind Chill: 35°   Ceiling: 8000
Heat Index: 39°   Visibility: 6mi
Dew Point: 28°   Wind: 6mph
Humidity: 65%   Direction: 230°SW
Pressure: 29.32"   Gusts: NA
Location:  54.79°S, 68.31°W
Report Text: SAWH 231100Z 23005KT 9999 VCSH FEW040SCT050 OVC080 04/M02 Q0993
Loading
Personal Weather Stations






























Interactive Weather Map New forecast layout! Learn more

10-Day Weather Forecast

Advertisements
Track Severe Weather on mobile